Time;durP1;ratioP1;P1;durP2;ratioP2;P2;SDS_P1;SDS_P2;PMS_P1;PMS_P2;Temp;Humidity;BMP_temperature;BMP_pressure;BME280_temperature;BME280_humidity;BME280_pressure;Samples;Min_cycle;Max_cycle;Signal;HPM_P1;HPM_P2
2023/12/23 00:01:57;;;;;;;30.58;26.33;;;;;;;;;;5028001;28;25101;-71
2023/12/23 00:04:23;;;;;;;32.17;26.85;;;;;;;;;;5024121;28;25070;-72
2023/12/23 00:06:49;;;;;;;31.10;27.80;;;;;;;;;;5031412;28;25146;-73
2023/12/23 00:09:16;;;;;;;32.03;27.83;;;;;;;;;;5028595;28;25066;-73
2023/12/23 00:11:42;;;;;;;31.23;28.25;;;;;;;;;;5026565;28;25102;-71
2023/12/23 00:14:08;;;;;;;34.42;29.80;;;;;;;;;;5027246;28;25044;-70
2023/12/23 00:16:34;;;;;;;33.60;30.25;;;;;;;;;;5029806;28;25078;-71
2023/12/23 00:19:00;;;;;;;43.05;30.67;;;;;;;;;;5028300;28;25148;-71
2023/12/23 00:21:26;;;;;;;33.35;28.77;;;;;;;;;;5029673;28;25099;-70
2023/12/23 00:23:52;;;;;;;32.50;27.30;;;;;;;;;;5027350;28;25119;-71
2023/12/23 00:26:18;;;;;;;31.20;27.98;;;;;;;;;;5026275;28;25054;-71
2023/12/23 00:28:44;;;;;;;35.05;28.23;;;;;;;;;;5028829;28;25067;-71
2023/12/23 00:31:10;;;;;;;31.92;27.15;;;;;;;;;;5028181;28;25081;-72
2023/12/23 00:33:36;;;;;;;34.65;28.63;;;;;;;;;;5026884;28;25074;-72
2023/12/23 00:36:02;;;;;;;41.63;28.55;;;;;;;;;;5031681;28;25053;-71
2023/12/23 00:38:28;;;;;;;35.85;26.83;;;;;;;;;;5030384;28;25056;-71
2023/12/23 00:40:54;;;;;;;31.48;27.63;;;;;;;;;;5024810;28;25081;-71
2023/12/23 00:43:20;;;;;;;34.58;28.13;;;;;;;;;;5028666;28;25070;-70
2023/12/23 00:45:46;;;;;;;32.28;26.38;;;;;;;;;;5019034;28;25059;-72
2023/12/23 00:48:13;;;;;;;33.70;26.55;;;;;;;;;;5025591;28;25156;-72
2023/12/23 00:50:39;;;;;;;40.90;27.38;;;;;;;;;;5028821;28;25131;-71
2023/12/23 00:53:05;;;;;;;29.88;26.60;;;;;;;;;;5028522;28;25133;-71
2023/12/23 00:55:31;;;;;;;33.13;26.38;;;;;;;;;;5024501;28;25157;-72
2023/12/23 00:57:57;;;;;;;33.83;26.10;;;;;;;;;;5026650;28;25061;-72
2023/12/23 01:00:22;;;;;;;28.55;24.00;;;;;;;;;;5027176;28;25055;-70
2023/12/23 01:02:49;;;;;;;29.80;22.50;;;;;;;;;;5029226;28;25056;-70
2023/12/23 01:05:15;;;;;;;41.28;25.65;;;;;;;;;;5027200;28;25077;-70
2023/12/23 01:07:42;;;;;;;30.08;24.48;;;;;;;;;;5024871;28;25060;-72
2023/12/23 01:10:08;;;;;;;29.95;25.50;;;;;;;;;;5026198;28;25100;-70
2023/12/23 01:12:34;;;;;;;42.30;32.85;;;;;;;;;;5022377;28;25051;-71
2023/12/23 01:15:00;;;;;;;34.67;30.40;;;;;;;;;;5026906;28;25134;-71
2023/12/23 01:17:25;;;;;;;44.00;28.38;;;;;;;;;;5026382;28;25054;-72
2023/12/23 01:19:51;;;;;;;39.78;28.17;;;;;;;;;;5024371;28;25069;-71
2023/12/23 01:22:17;;;;;;;37.78;27.88;;;;;;;;;;5020315;28;25070;-70
2023/12/23 01:24:43;;;;;;;45.03;29.80;;;;;;;;;;5027116;28;25167;-71
2023/12/23 01:27:09;;;;;;;33.05;28.13;;;;;;;;;;5033605;28;25069;-71
2023/12/23 01:29:37;;;;;;;34.15;29.40;;;;;;;;;;5026113;28;25296;-72
2023/12/23 01:32:02;;;;;;;33.70;28.83;;;;;;;;;;5023032;28;25064;-72
2023/12/23 01:34:28;;;;;;;31.55;27.77;;;;;;;;;;5030561;28;25056;-70
2023/12/23 01:36:54;;;;;;;43.95;29.27;;;;;;;;;;5030773;28;25092;-70
2023/12/23 01:39:20;;;;;;;34.22;27.15;;;;;;;;;;5029364;28;25073;-71
2023/12/23 01:41:46;;;;;;;36.65;27.08;;;;;;;;;;5023686;28;25076;-71
2023/12/23 01:44:12;;;;;;;36.45;26.50;;;;;;;;;;5028580;28;25144;-71
2023/12/23 01:46:38;;;;;;;35.65;26.35;;;;;;;;;;5026702;28;25132;-71
2023/12/23 01:49:05;;;;;;;34.60;26.30;;;;;;;;;;5023941;28;25057;-72
2023/12/23 01:51:33;;;;;;;32.60;26.27;;;;;;;;;;5023266;28;25070;-71
2023/12/23 01:54:02;;;;;;;37.92;26.83;;;;;;;;;;5027487;28;25061;-70
2023/12/23 01:56:28;;;;;;;35.58;26.65;;;;;;;;;;5022579;28;25064;-70
2023/12/23 01:58:54;;;;;;;41.33;26.70;;;;;;;;;;5024756;28;25084;-72
2023/12/23 02:01:20;;;;;;;35.75;26.80;;;;;;;;;;5023814;28;25057;-71
2023/12/23 02:03:46;;;;;;;39.45;27.83;;;;;;;;;;5020775;28;25052;-70
2023/12/23 02:06:12;;;;;;;30.80;27.38;;;;;;;;;;5025540;28;25250;-70
2023/12/23 02:08:38;;;;;;;30.10;26.80;;;;;;;;;;5024833;28;25075;-70
2023/12/23 02:11:08;;;;;;;36.80;27.25;;;;;;;;;;5020067;28;25161;-73
2023/12/23 02:13:45;;;;;;;31.75;26.73;;;;;;;;;;5030121;28;25083;-69
2023/12/23 02:16:11;;;;;;;31.83;26.30;;;;;;;;;;5025134;28;25083;-72
2023/12/23 02:18:38;;;;;;;32.47;26.02;;;;;;;;;;5029421;28;25056;-72
2023/12/23 02:21:04;;;;;;;34.15;25.02;;;;;;;;;;5027284;28;25064;-71
2023/12/23 02:23:30;;;;;;;34.15;26.77;;;;;;;;;;5035386;28;25071;-71
2023/12/23 02:25:59;;;;;;;49.55;27.55;;;;;;;;;;5030682;28;25069;-72
2023/12/23 02:28:25;;;;;;;33.38;26.83;;;;;;;;;;5029027;28;25063;-72
2023/12/23 02:30:53;;;;;;;30.58;26.88;;;;;;;;;;5025047;28;25094;-70
2023/12/23 02:33:19;;;;;;;41.10;26.80;;;;;;;;;;5024260;28;25076;-71
2023/12/23 02:35:52;;;;;;;31.65;28.40;;;;;;;;;;5028533;28;25100;-72
2023/12/23 02:38:18;;;;;;;38.63;28.35;;;;;;;;;;5022734;28;25046;-71
2023/12/23 02:40:44;;;;;;;33.00;27.85;;;;;;;;;;5028486;28;25060;-70
2023/12/23 02:43:10;;;;;;;28.85;25.75;;;;;;;;;;5024820;28;25087;-70
2023/12/23 02:45:36;;;;;;;33.83;27.88;;;;;;;;;;5024424;28;25074;-71
2023/12/23 02:48:03;;;;;;;35.28;25.98;;;;;;;;;;5020448;28;25154;-69
2023/12/23 02:50:29;;;;;;;34.15;26.02;;;;;;;;;;5028625;28;25081;-69
2023/12/23 02:52:55;;;;;;;30.05;25.33;;;;;;;;;;5029197;28;25078;-70
2023/12/23 02:55:20;;;;;;;27.50;24.55;;;;;;;;;;5022409;28;25129;-70
2023/12/23 02:57:46;;;;;;;38.10;25.80;;;;;;;;;;5023685;28;25151;-71
2023/12/23 03:00:13;;;;;;;36.78;26.02;;;;;;;;;;5029356;28;25138;-70
2023/12/23 03:02:39;;;;;;;33.15;23.92;;;;;;;;;;5029977;28;25082;-71
2023/12/23 03:05:05;;;;;;;33.92;24.15;;;;;;;;;;5028569;28;25055;-70
2023/12/23 03:07:31;;;;;;;37.30;25.98;;;;;;;;;;5026303;28;25078;-70
2023/12/23 03:09:57;;;;;;;28.42;22.60;;;;;;;;;;5029459;28;25060;-71
2023/12/23 03:12:23;;;;;;;35.78;23.27;;;;;;;;;;5029048;28;25075;-70
2023/12/23 03:14:49;;;;;;;25.65;20.10;;;;;;;;;;5028831;28;25093;-72
2023/12/23 03:17:15;;;;;;;27.42;21.13;;;;;;;;;;5030745;28;25075;-70
2023/12/23 03:19:42;;;;;;;23.05;20.35;;;;;;;;;;5030439;28;25125;-70
2023/12/23 03:22:08;;;;;;;23.17;20.67;;;;;;;;;;5022646;28;25051;-71
2023/12/23 03:24:34;;;;;;;24.38;20.70;;;;;;;;;;5026306;28;25059;-71
2023/12/23 03:27:00;;;;;;;23.95;21.20;;;;;;;;;;5020973;28;25061;-71
2023/12/23 03:29:26;;;;;;;29.55;20.13;;;;;;;;;;5026427;28;25177;-68
2023/12/23 03:31:52;;;;;;;27.63;19.67;;;;;;;;;;5027529;28;25154;-71
2023/12/23 03:34:18;;;;;;;21.77;19.33;;;;;;;;;;5034073;28;25066;-71
2023/12/23 03:36:44;;;;;;;30.35;21.50;;;;;;;;;;5033797;28;25140;-71
2023/12/23 03:39:10;;;;;;;29.73;18.70;;;;;;;;;;5031724;28;25068;-70
2023/12/23 03:41:36;;;;;;;21.85;18.95;;;;;;;;;;5032620;28;25053;-73
2023/12/23 03:44:02;;;;;;;22.63;19.08;;;;;;;;;;5029363;28;25054;-71
2023/12/23 03:46:28;;;;;;;27.67;20.65;;;;;;;;;;5033707;28;25084;-71
2023/12/23 03:48:54;;;;;;;31.98;18.73;;;;;;;;;;5033538;28;25069;-69
2023/12/23 03:51:21;;;;;;;24.38;19.60;;;;;;;;;;5035121;28;25046;-69
2023/12/23 03:53:47;;;;;;;33.97;19.40;;;;;;;;;;5032845;28;25056;-71
2023/12/23 03:56:13;;;;;;;25.33;20.38;;;;;;;;;;5032956;28;25160;-72
2023/12/23 03:58:39;;;;;;;26.20;19.70;;;;;;;;;;5036646;28;25110;-71
2023/12/23 04:01:06;;;;;;;37.22;18.67;;;;;;;;;;5031603;28;25088;-71
2023/12/23 04:03:32;;;;;;;30.42;17.50;;;;;;;;;;5027650;28;25054;-71
2023/12/23 04:05:58;;;;;;;30.05;16.45;;;;;;;;;;5028963;28;25126;-71
2023/12/23 04:08:23;;;;;;;26.85;16.08;;;;;;;;;;5028664;28;25073;-71
2023/12/23 04:10:51;;;;;;;24.38;15.57;;;;;;;;;;5028396;28;25113;-70
2023/12/23 04:13:17;;;;;;;33.30;15.73;;;;;;;;;;5030490;28;25046;-70
2023/12/23 04:15:43;;;;;;;17.50;13.98;;;;;;;;;;5033862;28;25049;-70
2023/12/23 04:18:09;;;;;;;21.13;14.68;;;;;;;;;;5026793;28;25050;-69
2023/12/23 04:20:35;;;;;;;25.08;15.95;;;;;;;;;;5031062;28;25092;-71
2023/12/23 04:23:01;;;;;;;23.27;15.27;;;;;;;;;;5027981;28;25063;-71
2023/12/23 04:25:28;;;;;;;21.10;14.63;;;;;;;;;;5029558;28;25075;-71
2023/12/23 04:27:55;;;;;;;23.73;16.00;;;;;;;;;;5028486;28;25061;-72
2023/12/23 04:30:21;;;;;;;23.45;15.02;;;;;;;;;;5031133;28;25073;-70
2023/12/23 04:32:47;;;;;;;23.27;14.73;;;;;;;;;;5030487;28;25110;-70
2023/12/23 04:35:13;;;;;;;27.23;12.73;;;;;;;;;;5033317;28;25077;-70
2023/12/23 04:37:41;;;;;;;27.33;12.15;;;;;;;;;;5029725;28;25337;-73
2023/12/23 04:40:08;;;;;;;24.33;13.23;;;;;;;;;;5034222;28;25055;-71
2023/12/23 04:42:34;;;;;;;24.30;13.73;;;;;;;;;;5027318;28;25065;-69
2023/12/23 04:45:00;;;;;;;28.85;13.00;;;;;;;;;;5032075;28;25151;-71
2023/12/23 04:47:26;;;;;;;24.20;12.68;;;;;;;;;;5032354;28;25095;-70
2023/12/23 04:49:52;;;;;;;20.67;12.70;;;;;;;;;;5031786;28;25065;-71
2023/12/23 04:52:18;;;;;;;17.83;11.77;;;;;;;;;;5030504;28;25075;-72
2023/12/23 04:54:44;;;;;;;24.13;10.65;;;;;;;;;;5030295;28;25085;-71
2023/12/23 04:57:10;;;;;;;23.98;11.00;;;;;;;;;;5031161;28;25073;-71
2023/12/23 04:59:36;;;;;;;23.77;11.73;;;;;;;;;;5029100;28;25082;-69
2023/12/23 05:02:02;;;;;;;22.58;11.15;;;;;;;;;;5033769;28;25068;-71
2023/12/23 05:04:28;;;;;;;25.80;11.77;;;;;;;;;;5029050;28;25094;-71
2023/12/23 05:06:54;;;;;;;27.52;11.40;;;;;;;;;;5025269;28;25139;-69
2023/12/23 05:09:20;;;;;;;24.85;11.52;;;;;;;;;;5030739;28;25150;-71
2023/12/23 05:11:46;;;;;;;25.50;11.07;;;;;;;;;;5042591;28;25143;-72
2023/12/23 05:14:12;;;;;;;26.38;12.05;;;;;;;;;;5040337;28;25050;-72
2023/12/23 05:16:38;;;;;;;22.98;11.90;;;;;;;;;;5051317;28;25076;-71
2023/12/23 05:19:04;;;;;;;23.48;10.40;;;;;;;;;;5050678;28;25074;-72
2023/12/23 05:21:30;;;;;;;22.75;10.80;;;;;;;;;;5053986;28;25046;-70
2023/12/23 05:23:56;;;;;;;24.63;12.27;;;;;;;;;;5053516;28;25074;-71
2023/12/23 05:26:22;;;;;;;33.75;10.95;;;;;;;;;;5054411;28;25053;-70
2023/12/23 05:28:48;;;;;;;25.05;10.88;;;;;;;;;;5046939;28;25148;-70
2023/12/23 05:31:14;;;;;;;23.92;9.68;;;;;;;;;;5050721;28;25097;-72
2023/12/23 05:33:40;;;;;;;22.17;9.90;;;;;;;;;;5036435;28;25066;-71
2023/12/23 05:36:07;;;;;;;36.03;11.02;;;;;;;;;;5027576;28;25088;-71
2023/12/23 05:38:33;;;;;;;35.10;11.13;;;;;;;;;;5025474;28;25094;-70
2023/12/23 05:40:58;;;;;;;21.48;10.57;;;;;;;;;;5021362;28;25155;-72
2023/12/23 05:43:24;;;;;;;22.20;11.40;;;;;;;;;;5029791;28;25075;-71
2023/12/23 05:45:50;;;;;;;25.95;11.50;;;;;;;;;;5028303;28;25048;-70
2023/12/23 05:48:16;;;;;;;26.13;10.32;;;;;;;;;;5028837;28;25050;-69
2023/12/23 05:50:42;;;;;;;24.63;11.15;;;;;;;;;;5027635;28;25067;-72
2023/12/23 05:53:08;;;;;;;26.73;11.57;;;;;;;;;;5030027;28;25067;-71
2023/12/23 05:55:34;;;;;;;39.67;11.35;;;;;;;;;;5027225;28;25159;-72
2023/12/23 05:58:00;;;;;;;18.98;9.43;;;;;;;;;;5028602;28;25064;-70
2023/12/23 06:00:26;;;;;;;30.80;10.40;;;;;;;;;;5021776;28;25063;-70
2023/12/23 06:02:53;;;;;;;27.55;11.93;;;;;;;;;;5024843;28;25112;-70
2023/12/23 06:05:19;;;;;;;27.33;11.32;;;;;;;;;;5026734;28;25051;-71
2023/12/23 06:07:45;;;;;;;31.63;12.48;;;;;;;;;;5028191;28;25105;-72
2023/12/23 06:10:11;;;;;;;33.75;11.55;;;;;;;;;;5027525;28;25140;-69
2023/12/23 06:12:37;;;;;;;24.50;10.73;;;;;;;;;;5026776;28;25138;-71
2023/12/23 06:15:03;;;;;;;30.58;11.38;;;;;;;;;;5028739;28;25142;-70
2023/12/23 06:17:29;;;;;;;28.00;11.38;;;;;;;;;;5030302;28;25077;-71
2023/12/23 06:19:55;;;;;;;29.40;10.80;;;;;;;;;;5025475;28;25071;-68
2023/12/23 06:22:21;;;;;;;28.17;10.63;;;;;;;;;;5022356;28;25115;-69
2023/12/23 06:24:47;;;;;;;27.88;11.13;;;;;;;;;;5027921;28;25146;-70
2023/12/23 06:27:13;;;;;;;29.13;10.40;;;;;;;;;;5024434;28;25128;-71
2023/12/23 06:29:39;;;;;;;19.67;9.82;;;;;;;;;;5031966;28;25059;-71
2023/12/23 06:32:05;;;;;;;28.73;10.43;;;;;;;;;;5032999;28;25068;-71
2023/12/23 06:34:31;;;;;;;29.38;9.52;;;;;;;;;;5025410;28;25092;-69
2023/12/23 06:36:57;;;;;;;28.10;9.90;;;;;;;;;;5026832;28;25060;-70
2023/12/23 06:39:24;;;;;;;22.23;10.02;;;;;;;;;;5024296;28;25054;-70
2023/12/23 06:41:50;;;;;;;20.25;10.18;;;;;;;;;;5028558;28;25068;-70
2023/12/23 06:44:16;;;;;;;19.92;10.65;;;;;;;;;;5028778;28;25059;-70
2023/12/23 06:46:42;;;;;;;25.50;11.95;;;;;;;;;;5023227;28;25087;-70
2023/12/23 06:49:08;;;;;;;20.88;9.15;;;;;;;;;;5025494;28;25135;-70
2023/12/23 06:51:34;;;;;;;28.42;9.95;;;;;;;;;;5025679;28;25058;-70
2023/12/23 06:54:00;;;;;;;20.33;10.50;;;;;;;;;;5024383;28;25049;-70
2023/12/23 06:56:26;;;;;;;18.23;8.18;;;;;;;;;;5024939;28;25074;-69
2023/12/23 06:58:51;;;;;;;27.05;10.90;;;;;;;;;;5024974;28;25109;-68
2023/12/23 07:01:17;;;;;;;20.95;9.30;;;;;;;;;;5026413;28;25081;-69
2023/12/23 07:03:43;;;;;;;28.75;9.88;;;;;;;;;;5026069;28;25073;-70
2023/12/23 07:06:13;;;;;;;25.00;9.35;;;;;;;;;;5027279;28;25080;-70
2023/12/23 07:08:40;;;;;;;22.48;8.57;;;;;;;;;;5025341;28;25127;-69
2023/12/23 07:11:06;;;;;;;24.65;8.55;;;;;;;;;;5027532;28;25067;-69
2023/12/23 07:13:32;;;;;;;25.55;8.65;;;;;;;;;;5028146;28;25071;-70
2023/12/23 07:15:58;;;;;;;22.73;9.25;;;;;;;;;;5020290;28;25080;-70
2023/12/23 07:18:24;;;;;;;25.80;9.70;;;;;;;;;;5026665;28;25090;-70
2023/12/23 07:20:51;;;;;;;23.10;8.73;;;;;;;;;;5026486;28;25082;-70
2023/12/23 07:23:17;;;;;;;23.98;9.70;;;;;;;;;;5025787;28;25076;-72
2023/12/23 07:25:43;;;;;;;25.25;8.88;;;;;;;;;;5024258;28;25083;-69
2023/12/23 07:28:09;;;;;;;20.95;7.30;;;;;;;;;;5023818;28;25086;-70
2023/12/23 07:30:40;;;;;;;22.85;7.80;;;;;;;;;;5026285;28;25073;-70
2023/12/23 07:33:06;;;;;;;19.50;8.35;;;;;;;;;;5017881;28;25067;-69
2023/12/23 07:35:33;;;;;;;18.33;7.25;;;;;;;;;;5028066;28;25078;-69
2023/12/23 07:37:59;;;;;;;20.65;6.97;;;;;;;;;;5028362;28;25078;-71
2023/12/23 07:40:25;;;;;;;20.50;6.82;;;;;;;;;;5028360;28;25085;-68
2023/12/23 07:42:51;;;;;;;13.73;6.72;;;;;;;;;;5027703;28;25078;-69
2023/12/23 07:45:17;;;;;;;18.55;6.90;;;;;;;;;;5030044;28;25080;-68
2023/12/23 07:47:44;;;;;;;18.42;7.53;;;;;;;;;;5026035;28;25088;-70
2023/12/23 07:50:11;;;;;;;18.67;6.68;;;;;;;;;;5028773;28;25131;-71
2023/12/23 07:52:37;;;;;;;21.15;7.50;;;;;;;;;;5030184;28;25059;-68
2023/12/23 07:55:03;;;;;;;24.13;7.65;;;;;;;;;;5027514;28;25057;-70
2023/12/23 07:57:29;;;;;;;27.77;8.25;;;;;;;;;;5025929;28;25086;-69
2023/12/23 07:59:55;;;;;;;24.65;7.15;;;;;;;;;;5038249;28;25073;-69
2023/12/23 08:02:22;;;;;;;25.08;8.45;;;;;;;;;;5033811;28;25067;-69
2023/12/23 08:04:48;;;;;;;21.20;7.53;;;;;;;;;;5036710;28;25066;-70
2023/12/23 08:07:15;;;;;;;20.27;7.55;;;;;;;;;;5033455;28;25089;-72
2023/12/23 08:09:41;;;;;;;24.38;8.35;;;;;;;;;;5034259;28;25110;-70
2023/12/23 08:12:07;;;;;;;18.52;8.88;;;;;;;;;;5038146;28;25072;-69
2023/12/23 08:14:33;;;;;;;19.92;7.80;;;;;;;;;;5036886;28;25049;-70
2023/12/23 08:16:59;;;;;;;22.60;7.93;;;;;;;;;;5040929;28;25062;-69
2023/12/23 08:19:25;;;;;;;17.95;7.63;;;;;;;;;;5040379;28;25088;-70
2023/12/23 08:21:51;;;;;;;24.75;7.82;;;;;;;;;;5045939;28;25084;-70
2023/12/23 08:24:17;;;;;;;23.58;7.22;;;;;;;;;;5048588;28;25082;-70
2023/12/23 08:26:44;;;;;;;32.50;7.85;;;;;;;;;;5048495;28;25056;-70
2023/12/23 08:29:10;;;;;;;18.67;7.57;;;;;;;;;;5053174;28;25099;-70
2023/12/23 08:31:46;;;;;;;14.57;7.78;;;;;;;;;;5054106;28;25130;-70
2023/12/23 08:34:12;;;;;;;17.58;8.25;;;;;;;;;;5050411;28;25062;-68
2023/12/23 08:36:38;;;;;;;20.63;8.48;;;;;;;;;;5045662;28;25052;-68
2023/12/23 08:39:04;;;;;;;20.67;8.55;;;;;;;;;;5045857;28;25063;-70
2023/12/23 08:41:30;;;;;;;14.38;8.45;;;;;;;;;;5036265;28;25107;-70
2023/12/23 08:43:57;;;;;;;18.40;8.38;;;;;;;;;;5026506;28;25109;-69
2023/12/23 08:46:23;;;;;;;20.60;8.35;;;;;;;;;;5021649;28;25095;-70
2023/12/23 08:48:48;;;;;;;23.58;8.15;;;;;;;;;;5028439;28;25080;-71
2023/12/23 08:51:14;;;;;;;19.80;7.93;;;;;;;;;;5025176;28;25047;-68
2023/12/23 08:53:40;;;;;;;22.45;8.60;;;;;;;;;;5031158;28;25074;-70
2023/12/23 08:56:06;;;;;;;23.00;7.97;;;;;;;;;;5035151;28;25082;-70
2023/12/23 08:58:32;;;;;;;19.10;6.85;;;;;;;;;;5026564;28;25077;-69
2023/12/23 09:00:58;;;;;;;15.40;7.70;;;;;;;;;;5027699;28;25077;-71
2023/12/23 09:03:25;;;;;;;21.35;7.15;;;;;;;;;;5028055;28;25097;-70
2023/12/23 09:05:50;;;;;;;21.58;6.95;;;;;;;;;;5026246;28;25074;-71
2023/12/23 09:08:17;;;;;;;19.17;7.53;;;;;;;;;;5022845;28;25077;-69
2023/12/23 09:10:43;;;;;;;19.45;6.57;;;;;;;;;;5022819;28;25097;-70
2023/12/23 09:13:09;;;;;;;22.00;7.32;;;;;;;;;;5025011;28;25099;-69
2023/12/23 09:15:35;;;;;;;14.98;8.00;;;;;;;;;;5023523;28;25066;-69
2023/12/23 09:18:01;;;;;;;18.90;7.82;;;;;;;;;;5024632;28;25140;-72
2023/12/23 09:20:28;;;;;;;24.48;8.90;;;;;;;;;;5024998;28;25070;-69
2023/12/23 09:22:54;;;;;;;23.60;7.90;;;;;;;;;;5019706;28;25097;-69
2023/12/23 09:25:20;;;;;;;20.13;7.53;;;;;;;;;;5023267;28;25139;-70
2023/12/23 09:27:46;;;;;;;20.67;7.68;;;;;;;;;;5018870;28;25055;-68
2023/12/23 09:30:12;;;;;;;29.38;7.97;;;;;;;;;;5025109;28;25104;-70
2023/12/23 09:32:38;;;;;;;24.00;7.68;;;;;;;;;;5019788;28;25067;-68
2023/12/23 09:35:04;;;;;;;23.38;8.43;;;;;;;;;;5023467;28;25178;-70
2023/12/23 09:37:30;;;;;;;24.13;9.35;;;;;;;;;;5021079;28;25144;-68
2023/12/23 09:39:59;;;;;;;26.83;7.40;;;;;;;;;;5023015;28;25069;-70
2023/12/23 09:42:25;;;;;;;22.73;8.13;;;;;;;;;;5019139;28;25095;-69
2023/12/23 09:44:51;;;;;;;20.70;7.38;;;;;;;;;;5022138;28;25134;-70
2023/12/23 09:47:17;;;;;;;25.48;7.50;;;;;;;;;;5019797;28;25080;-69
2023/12/23 09:49:43;;;;;;;23.70;8.20;;;;;;;;;;5025792;28;25063;-69
2023/12/23 09:52:10;;;;;;;22.08;8.77;;;;;;;;;;5023546;28;25126;-69
2023/12/23 09:54:38;;;;;;;21.10;8.38;;;;;;;;;;5021720;28;25059;-70
2023/12/23 09:57:04;;;;;;;24.42;7.82;;;;;;;;;;5023453;28;25064;-69
2023/12/23 09:59:31;;;;;;;21.13;7.47;;;;;;;;;;5025409;28;25057;-68
2023/12/23 10:01:57;;;;;;;26.23;6.63;;;;;;;;;;5019486;28;25053;-69
2023/12/23 10:04:23;;;;;;;26.08;7.95;;;;;;;;;;5023057;28;25126;-70
2023/12/23 10:06:52;;;;;;;27.67;7.28;;;;;;;;;;5022255;28;25141;-69
2023/12/23 10:09:18;;;;;;;18.27;6.22;;;;;;;;;;5022106;28;25077;-70
2023/12/23 10:11:44;;;;;;;17.38;6.68;;;;;;;;;;5023001;28;25106;-69
2023/12/23 10:14:09;;;;;;;19.73;6.32;;;;;;;;;;5019027;28;25068;-71
2023/12/23 10:16:35;;;;;;;25.02;6.03;;;;;;;;;;5016788;28;25070;-70
2023/12/23 10:19:01;;;;;;;20.73;6.85;;;;;;;;;;5018274;28;25109;-70
2023/12/23 10:21:27;;;;;;;14.65;6.72;;;;;;;;;;5023834;28;25066;-73
2023/12/23 10:23:53;;;;;;;21.48;6.18;;;;;;;;;;5024924;28;25065;-71
2023/12/23 10:26:19;;;;;;;21.52;6.40;;;;;;;;;;5020362;28;25057;-70
2023/12/23 10:28:50;;;;;;;16.42;6.22;;;;;;;;;;5022280;28;25084;-70
2023/12/23 10:31:17;;;;;;;19.05;6.07;;;;;;;;;;5024611;28;25057;-70
2023/12/23 10:33:47;;;;;;;22.20;6.72;;;;;;;;;;5022520;28;25149;-71
2023/12/23 10:36:13;;;;;;;18.95;5.97;;;;;;;;;;5013294;28;25168;-70
2023/12/23 10:38:42;;;;;;;17.92;5.75;;;;;;;;;;5021803;28;25093;-71
2023/12/23 10:41:11;;;;;;;17.08;5.95;;;;;;;;;;5013870;28;25056;-70
2023/12/23 10:43:37;;;;;;;19.42;5.70;;;;;;;;;;5023447;28;25064;-70
2023/12/23 10:46:03;;;;;;;16.85;5.85;;;;;;;;;;5022663;28;25139;-71
2023/12/23 10:48:29;;;;;;;21.20;6.28;;;;;;;;;;5015734;28;25147;-68
2023/12/23 10:50:56;;;;;;;19.88;6.05;;;;;;;;;;5014565;28;25054;-69
2023/12/23 10:53:23;;;;;;;15.73;4.88;;;;;;;;;;5019256;28;25094;-69
2023/12/23 10:55:49;;;;;;;15.95;5.38;;;;;;;;;;5024558;28;25149;-70
2023/12/23 10:58:16;;;;;;;17.75;5.63;;;;;;;;;;5020606;28;25070;-70
2023/12/23 11:00:42;;;;;;;22.35;6.78;;;;;;;;;;5017690;28;25055;-69
2023/12/23 11:03:09;;;;;;;21.38;6.22;;;;;;;;;;5006312;28;25066;-69
2023/12/23 11:05:37;;;;;;;19.23;4.82;;;;;;;;;;5025003;28;25067;-70
2023/12/23 11:08:05;;;;;;;11.80;4.53;;;;;;;;;;5001427;28;25045;-69
2023/12/23 11:10:32;;;;;;;17.30;4.53;;;;;;;;;;5017425;28;25088;-71
2023/12/23 11:13:00;;;;;;;12.23;4.90;;;;;;;;;;5021306;28;25059;-69
2023/12/23 11:15:26;;;;;;;14.38;4.72;;;;;;;;;;5024302;28;25104;-70
2023/12/23 11:17:54;;;;;;;14.75;5.53;;;;;;;;;;5017283;28;25086;-69
2023/12/23 11:20:35;;;;;;;13.48;4.80;;;;;;;;;;5007100;28;25060;-70
2023/12/23 11:23:20;;;;;;;16.13;4.95;;;;;;;;;;5022341;28;25119;-70
2023/12/23 11:25:46;;;;;;;20.85;5.60;;;;;;;;;;5022641;28;25069;-70
2023/12/23 11:28:15;;;;;;;12.77;4.53;;;;;;;;;;5020386;28;25146;-69
2023/12/23 11:30:47;;;;;;;15.02;5.57;;;;;;;;;;5026503;28;25112;-69
2023/12/23 11:33:13;;;;;;;14.63;4.15;;;;;;;;;;5029118;28;25059;-71
2023/12/23 11:35:46;;;;;;;14.35;3.88;;;;;;;;;;5022934;28;25053;-69
2023/12/23 11:38:12;;;;;;;11.52;3.90;;;;;;;;;;5012284;28;25075;-70
2023/12/23 11:40:38;;;;;;;17.75;4.65;;;;;;;;;;5021218;28;25063;-70
2023/12/23 11:43:05;;;;;;;14.27;3.97;;;;;;;;;;5022855;28;25054;-73
2023/12/23 11:45:31;;;;;;;9.35;3.70;;;;;;;;;;5024837;28;25101;-70
2023/12/23 11:47:57;;;;;;;10.13;3.55;;;;;;;;;;5023877;28;25106;-70
2023/12/23 11:50:23;;;;;;;13.55;4.00;;;;;;;;;;5023071;28;25065;-70
2023/12/23 11:52:49;;;;;;;16.63;4.57;;;;;;;;;;5023031;28;25072;-70
2023/12/23 11:55:16;;;;;;;10.85;3.72;;;;;;;;;;5024520;28;25136;-71
2023/12/23 11:57:42;;;;;;;18.65;3.72;;;;;;;;;;5027392;28;25098;-70
2023/12/23 12:00:08;;;;;;;10.00;3.60;;;;;;;;;;5026232;28;25091;-70
2023/12/23 12:02:34;;;;;;;11.88;4.07;;;;;;;;;;5029452;28;25093;-70
2023/12/23 12:05:00;;;;;;;10.18;3.63;;;;;;;;;;5026318;28;25089;-69
2023/12/23 12:07:27;;;;;;;12.95;3.78;;;;;;;;;;5029740;28;25100;-69
2023/12/23 12:09:53;;;;;;;12.60;4.40;;;;;;;;;;5029080;28;25075;-70
2023/12/23 12:12:19;;;;;;;10.25;3.45;;;;;;;;;;5028410;28;25074;-68
2023/12/23 12:14:45;;;;;;;16.30;4.05;;;;;;;;;;5029698;28;25059;-71
2023/12/23 12:17:11;;;;;;;13.60;4.10;;;;;;;;;;5034940;28;25073;-70
2023/12/23 12:19:37;;;;;;;13.25;3.97;;;;;;;;;;5030468;28;25061;-70
2023/12/23 12:22:04;;;;;;;9.15;4.07;;;;;;;;;;5029190;28;25082;-72
2023/12/23 12:24:30;;;;;;;17.77;4.30;;;;;;;;;;5024002;28;25084;-69
2023/12/23 12:27:00;;;;;;;11.93;3.53;;;;;;;;;;5027564;28;25081;-70
2023/12/23 12:29:26;;;;;;;11.35;3.80;;;;;;;;;;5024699;28;25086;-70
2023/12/23 12:31:52;;;;;;;14.00;4.13;;;;;;;;;;5025810;28;25054;-69
2023/12/23 12:34:18;;;;;;;17.55;4.47;;;;;;;;;;5021818;28;25143;-70
2023/12/23 12:36:44;;;;;;;15.07;4.13;;;;;;;;;;5026811;28;25081;-72
2023/12/23 12:39:12;;;;;;;13.32;4.20;;;;;;;;;;5019299;28;25048;-69
2023/12/23 12:41:39;;;;;;;17.23;4.50;;;;;;;;;;5024469;28;25046;-70
2023/12/23 12:44:05;;;;;;;11.88;3.83;;;;;;;;;;5024440;28;25059;-70
2023/12/23 12:46:36;;;;;;;13.63;4.93;;;;;;;;;;5021607;28;25131;-71
2023/12/23 12:49:02;;;;;;;16.92;4.50;;;;;;;;;;5020994;28;25069;-70
2023/12/23 12:51:28;;;;;;;14.05;4.18;;;;;;;;;;5026820;28;25075;-70
2023/12/23 12:53:54;;;;;;;13.15;4.63;;;;;;;;;;5018951;28;25117;-69
2023/12/23 12:56:20;;;;;;;12.52;4.57;;;;;;;;;;5025347;28;25161;-70
2023/12/23 12:58:47;;;;;;;19.80;4.10;;;;;;;;;;5019955;28;25062;-69
2023/12/23 13:01:13;;;;;;;10.85;3.80;;;;;;;;;;5023358;28;25128;-69
2023/12/23 13:03:39;;;;;;;12.70;4.28;;;;;;;;;;5020371;28;25082;-68
2023/12/23 13:06:05;;;;;;;11.93;4.63;;;;;;;;;;5021825;28;25041;-69
2023/12/23 13:08:32;;;;;;;22.35;4.90;;;;;;;;;;5025012;28;25069;-68
2023/12/23 13:10:58;;;;;;;14.93;4.75;;;;;;;;;;5025599;28;25046;-69
2023/12/23 13:13:24;;;;;;;11.77;4.32;;;;;;;;;;5024712;28;25056;-70
2023/12/23 13:15:51;;;;;;;11.30;5.55;;;;;;;;;;5026360;28;25144;-68
2023/12/23 13:18:17;;;;;;;16.85;4.40;;;;;;;;;;5022983;28;25142;-70
2023/12/23 13:20:43;;;;;;;15.02;4.68;;;;;;;;;;5025042;28;25075;-70
2023/12/23 13:23:09;;;;;;;14.65;5.10;;;;;;;;;;5018374;28;25148;-68
2023/12/23 13:25:35;;;;;;;16.75;4.85;;;;;;;;;;5026035;28;25110;-69
2023/12/23 13:28:01;;;;;;;19.40;5.50;;;;;;;;;;5028718;28;25064;-69
2023/12/23 13:30:27;;;;;;;13.88;4.90;;;;;;;;;;5034107;28;25072;-69
2023/12/23 13:32:53;;;;;;;12.15;5.18;;;;;;;;;;5031581;28;25089;-69
2023/12/23 13:35:19;;;;;;;14.23;4.55;;;;;;;;;;5034383;28;25083;-69
2023/12/23 13:37:45;;;;;;;9.05;4.00;;;;;;;;;;5025818;28;25079;-68
2023/12/23 13:40:12;;;;;;;12.20;4.63;;;;;;;;;;5032402;28;25062;-69
2023/12/23 13:42:38;;;;;;;17.13;5.72;;;;;;;;;;5037930;28;25098;-70
2023/12/23 13:45:04;;;;;;;13.85;4.15;;;;;;;;;;5033113;28;25074;-69
2023/12/23 13:47:31;;;;;;;13.50;3.83;;;;;;;;;;5033595;28;25064;-68
2023/12/23 13:49:57;;;;;;;14.40;5.78;;;;;;;;;;5033534;28;25075;-69
2023/12/23 13:52:23;;;;;;;16.45;4.43;;;;;;;;;;5037824;28;25089;-69
2023/12/23 13:54:49;;;;;;;12.20;4.35;;;;;;;;;;5034879;28;25103;-71
2023/12/23 13:57:15;;;;;;;9.45;4.53;;;;;;;;;;5037869;28;25061;-69
2023/12/23 13:59:42;;;;;;;13.38;4.70;;;;;;;;;;5038532;28;25075;-69
2023/12/23 14:02:08;;;;;;;16.33;4.50;;;;;;;;;;5029669;28;25062;-69
2023/12/23 14:04:35;;;;;;;16.55;5.03;;;;;;;;;;5032078;28;25065;-69
2023/12/23 14:07:01;;;;;;;14.50;5.22;;;;;;;;;;5033628;28;25067;-70
2023/12/23 14:09:27;;;;;;;13.35;5.03;;;;;;;;;;5034209;28;25062;-71
2023/12/23 14:11:53;;;;;;;20.70;7.07;;;;;;;;;;5035576;28;25077;-70
2023/12/23 14:14:19;;;;;;;16.98;5.93;;;;;;;;;;5037178;28;25084;-70
2023/12/23 14:16:45;;;;;;;18.00;6.25;;;;;;;;;;5032442;28;25054;-68
2023/12/23 14:19:11;;;;;;;14.75;5.15;;;;;;;;;;5031677;28;25088;-68